NCAR-RAP Real-Time Weather Data

Output produced by METARs form (15 October 2019  00:01 UTC)
found at http://weather.rap.ucar.edu/surface/
 
RJKA 142300Z 36010KT 9999 FEW020 BKN025 BKN045 25/20 Q1018
 
ROAH 142330Z 01022KT 9999 SCT023 BKN040 25/20 Q1018 RMK 4CU023 7SC040 A3007
 
RODN 142356Z AUTO 01014G23KT 10SM FEW042 26/21 A3009 RMK AO2 SLP195 7//// T02640205 10264 20236 52014 $
 
ROIG 142344Z 02019G29KT 9999 FEW024 BKN035 25/20 Q1019 RMK 1CU024 7SC035 A3009
 
ROMY 142300Z 02015G26KT 9999 VCSH SCT024 BKN030 25/20 Q1018
 
RORS 142300Z 02026KT 9999 SCT025 BKN037 25/20 Q1018